Airfield :
LOGIN :

Register | Disclaimer

   EN    FR    IT 

 










Legend :    VFR   Marginal VFR   IFR   Intensive IFR   Very Intensive IFR
Visi :
Ceiling :
>= 8 km
>= 3000ft
5 to 8 km
1000 to 3000 ft
1500m to 5 km
500 to 1000 ft
800 to 1500m
200 to 500 ft
< 800m
< 200 ft
Symbols :   Thunderstorms  Fog  Heavy snow  Heavy precipitations  Wind > 20 kt
SIGMETs :     Misc.  Thunderstorms  Icing  Turbulence  Mountain Waves  Volcanic Ashes







- Airport Elevation : 147 ft
- IATA code : DUS


EDDL - Düsseldorf Int.

CURRENT METAR :
  • 170720Z 16005KT 9999 SCT017 OVC021 15/12 Q1022 NOSIG

EXPIRED METARs :
  • 170650Z 18003KT 150V210 9999 FEW016 OVC020 14/13 Q1022 NOSIG
  • 170620Z 23004KT 210V280 9999 FEW016 BKN021 13/12 Q1022 NOSIG
  • 170550Z 22004KT 9999 FEW020 SCT052 BKN300 13/11 Q1022 NOSIG
  • 170520Z 22004KT 190V250 CAVOK 13/11 Q1022 NOSIG
  • 170450Z 19003KT 160V280 CAVOK 13/12 Q1022 NOSIG

TAF TAF EDDL
Valid from the 17 at 06:00 until the 18 at 12:00 UTC


170500Z 1706/1812 18005KT CAVOK
BECMG 1712/1714 VRB03KT
BECMG 1806/1808 16007KT
No reported NOTAMs for that airfield.



MET'MAP, your aeronautical weather chart ! - Copyright ORBIFLY December 2007 - Disclaimer

ORBIFLY MET'MAP TEAM :

Programming & Development : Alexandra Zaïnal
Concept & Development : Baudouin d'Aumeries
Co-Development & Prog : Marc-Olivier Méhu
Technical & hardware support : Manuel Goepfert

Contact : metmap@orbifly.com




SOURCES & CREDITS :

   NOAA